createdAt,value
2022-10-22T00:00:25.890Z,14.70
2022-10-22T00:04:32.844Z,14.80
2022-10-22T00:08:37.992Z,14.70
2022-10-22T00:12:42.125Z,14.70
2022-10-22T00:16:44.956Z,14.80
2022-10-22T00:20:47.743Z,14.80
2022-10-22T00:24:50.454Z,14.80
2022-10-22T00:28:54.730Z,14.70
2022-10-22T00:32:57.561Z,14.70
2022-10-22T00:37:00.292Z,14.80
2022-10-22T00:41:03.008Z,14.70
2022-10-22T00:45:17.106Z,14.60
2022-10-22T00:49:19.919Z,14.60
2022-10-22T00:53:35.814Z,14.50
2022-10-22T00:57:38.796Z,14.60
2022-10-22T01:01:43.374Z,14.50
2022-10-22T01:05:55.188Z,14.50
2022-10-22T01:10:06.723Z,14.50
2022-10-22T01:14:18.384Z,14.50
2022-10-22T01:18:25.583Z,14.50
2022-10-22T01:22:33.302Z,14.50
2022-10-22T01:26:49.034Z,14.50
2022-10-22T01:30:56.826Z,14.40
2022-10-22T01:35:03.647Z,14.40
2022-10-22T01:39:06.863Z,14.50
2022-10-22T01:43:11.693Z,14.50
2022-10-22T01:47:28.390Z,14.50
2022-10-22T01:51:50.209Z,14.50
2022-10-22T01:56:10.901Z,14.50
2022-10-22T02:00:15.856Z,14.40
2022-10-22T02:04:23.795Z,14.40
2022-10-22T02:08:30.419Z,14.40
2022-10-22T02:12:34.699Z,14.40
2022-10-22T02:16:41.390Z,14.30
2022-10-22T02:20:45.633Z,14.30
2022-10-22T02:24:49.562Z,14.40
2022-10-22T02:29:00.731Z,14.40
2022-10-22T02:33:09.725Z,14.40
2022-10-22T02:37:14.736Z,14.30
2022-10-22T02:41:18.711Z,14.40
2022-10-22T02:45:22.164Z,14.40
2022-10-22T02:49:24.933Z,14.40
2022-10-22T02:53:29.052Z,14.40
2022-10-22T02:57:31.742Z,14.40
2022-10-22T03:01:34.478Z,14.30
2022-10-22T03:05:37.212Z,14.30
2022-10-22T03:09:41.454Z,14.20
2022-10-22T03:13:44.150Z,14.20
2022-10-22T03:17:46.819Z,14.20
2022-10-22T03:21:51.662Z,14.10
2022-10-22T03:25:55.903Z,14.10
2022-10-22T03:29:59.797Z,14.20
2022-10-22T03:34:02.474Z,14.00
2022-10-22T03:38:05.253Z,14.10
2022-10-22T03:42:09.822Z,14.00
2022-10-22T03:46:12.509Z,13.90
2022-10-22T03:50:15.170Z,13.90
2022-10-22T03:54:18.194Z,13.90
2022-10-22T03:58:22.286Z,13.80
2022-10-22T04:02:25.090Z,13.90
2022-10-22T04:06:30.002Z,13.70
2022-10-22T04:10:32.833Z,13.80
2022-10-22T04:14:36.910Z,13.80
2022-10-22T04:18:40.203Z,13.60
2022-10-22T04:22:43.083Z,13.60
2022-10-22T04:26:45.758Z,13.70
2022-10-22T04:30:49.793Z,13.60
2022-10-22T04:34:52.498Z,13.60
2022-10-22T04:38:56.792Z,13.60
2022-10-22T04:42:59.552Z,13.60
2022-10-22T04:47:03.688Z,13.40
2022-10-22T04:51:07.721Z,13.50
2022-10-22T04:55:10.663Z,13.40
2022-10-22T04:59:13.738Z,13.30
2022-10-22T05:03:17.792Z,13.40
2022-10-22T05:07:20.482Z,13.40
2022-10-22T05:11:24.480Z,13.40
2022-10-22T05:15:27.163Z,13.50
2022-10-22T05:19:32.251Z,13.50
2022-10-22T05:23:34.956Z,13.50
2022-10-22T05:27:37.861Z,13.50
2022-10-22T05:31:41.018Z,13.40
2022-10-22T05:35:46.845Z,13.50
2022-10-22T05:39:57.560Z,13.50
2022-10-22T05:44:12.266Z,13.50
2022-10-22T05:48:15.030Z,13.60
2022-10-22T05:52:19.082Z,13.50
2022-10-22T05:56:22.924Z,13.50
2022-10-22T06:00:25.659Z,13.50
2022-10-22T06:04:28.367Z,13.40
2022-10-22T06:08:32.842Z,13.40
2022-10-22T06:12:35.930Z,13.20
2022-10-22T06:16:39.175Z,13.40
2022-10-22T06:20:43.150Z,13.40
2022-10-22T06:24:47.231Z,13.30
2022-10-22T06:28:50.010Z,13.40
2022-10-22T06:32:52.812Z,13.40
2022-10-22T06:36:55.562Z,13.30
2022-10-22T06:41:03.983Z,13.40
2022-10-22T06:45:08.297Z,13.40
2022-10-22T06:49:13.375Z,13.50
2022-10-22T06:53:16.164Z,13.60
2022-10-22T06:57:20.275Z,13.60
2022-10-22T07:01:25.186Z,13.60
2022-10-22T07:05:27.937Z,13.50
2022-10-22T07:09:30.867Z,13.50
2022-10-22T07:13:35.455Z,13.50
2022-10-22T07:21:45.867Z,13.40
2022-10-22T07:25:48.749Z,13.50
2022-10-22T07:29:52.831Z,13.50
2022-10-22T07:33:55.576Z,13.50
2022-10-22T07:37:58.254Z,13.60
2022-10-22T07:42:00.947Z,13.70
2022-10-22T07:46:05.057Z,13.80
2022-10-22T07:50:08.335Z,13.80
2022-10-22T07:54:11.092Z,13.90
2022-10-22T07:58:13.799Z,13.90
2022-10-22T08:02:17.931Z,14.00
2022-10-22T08:06:20.674Z,14.00
2022-10-22T08:10:23.408Z,14.00
2022-10-22T08:14:26.133Z,14.00
2022-10-22T08:18:30.890Z,14.00
2022-10-22T08:22:33.596Z,14.00
2022-10-22T08:26:36.319Z,14.00
2022-10-22T08:30:40.221Z,14.10
2022-10-22T08:34:44.250Z,14.10
2022-10-22T08:38:46.930Z,14.20
2022-10-22T08:43:21.067Z,14.30
2022-10-22T08:47:39.827Z,14.30
2022-10-22T08:51:44.173Z,14.40
2022-10-22T08:55:46.915Z,14.50
2022-10-22T08:59:55.175Z,14.60
2022-10-22T09:04:00.889Z,14.60
2022-10-22T09:08:06.487Z,14.60
2022-10-22T09:12:19.435Z,14.60
2022-10-22T09:16:31.716Z,14.60
2022-10-22T09:20:39.858Z,14.70
2022-10-22T09:24:47.973Z,14.80
2022-10-22T09:28:52.108Z,14.80
2022-10-22T09:33:02.356Z,14.90
2022-10-22T09:37:07.458Z,14.90
2022-10-22T09:41:11.684Z,14.90
2022-10-22T09:45:20.855Z,14.90
2022-10-22T09:49:25.098Z,15.00
2022-10-22T09:53:30.925Z,15.00
2022-10-22T09:57:37.894Z,15.00
2022-10-22T10:01:44.407Z,15.10
2022-10-22T10:05:50.055Z,15.40
2022-10-22T10:09:53.817Z,15.80
2022-10-22T10:14:06.976Z,16.00
2022-10-22T10:18:18.831Z,16.30
2022-10-22T10:22:35.875Z,17.00
2022-10-22T10:26:42.987Z,18.10
2022-10-22T10:30:54.753Z,19.10
2022-10-22T10:35:10.419Z,19.30
2022-10-22T10:39:24.014Z,20.20
2022-10-22T10:43:33.860Z,21.20
2022-10-22T10:48:05.124Z,21.20
2022-10-22T10:52:18.884Z,21.00
2022-10-22T10:56:36.804Z,21.30
2022-10-22T11:00:49.388Z,21.50
2022-10-22T11:05:12.885Z,21.30
2022-10-22T11:09:25.581Z,22.00
2022-10-22T11:13:32.732Z,23.70
2022-10-22T11:17:41.100Z,25.00
2022-10-22T11:21:51.811Z,26.60
2022-10-22T11:25:54.656Z,27.50
2022-10-22T11:30:02.536Z,28.90
2022-10-22T11:34:32.189Z,28.40
2022-10-22T11:38:36.760Z,28.60
2022-10-22T11:42:43.260Z,28.50
2022-10-22T11:46:47.651Z,29.70
2022-10-22T11:50:56.624Z,29.60
2022-10-22T11:55:03.782Z,30.20
2022-10-22T11:59:35.525Z,30.50
2022-10-22T12:03:43.720Z,30.40
2022-10-22T12:07:57.005Z,29.40
2022-10-22T12:12:12.013Z,28.90
2022-10-22T12:16:15.502Z,28.80
2022-10-22T12:20:27.070Z,28.60
2022-10-22T12:24:33.941Z,29.20
2022-10-22T12:28:41.736Z,29.70
2022-10-22T12:32:44.542Z,28.80
2022-10-22T12:36:49.130Z,27.10
2022-10-22T12:40:55.077Z,26.60
2022-10-22T12:44:59.123Z,26.20
2022-10-22T12:49:03.703Z,26.60
2022-10-22T12:53:07.045Z,27.10
2022-10-22T12:57:14.925Z,26.20
2022-10-22T13:01:19.664Z,25.40
2022-10-22T13:05:27.138Z,26.10
2022-10-22T13:09:39.223Z,26.90
2022-10-22T13:13:45.508Z,27.80
2022-10-22T13:17:50.137Z,27.10
2022-10-22T13:21:54.112Z,26.00
2022-10-22T13:26:02.335Z,26.20
2022-10-22T13:30:18.557Z,25.80
2022-10-22T13:34:25.062Z,24.80
2022-10-22T13:38:29.165Z,23.90
2022-10-22T13:42:31.853Z,23.80
2022-10-22T13:46:40.459Z,24.10
2022-10-22T13:50:44.564Z,24.20
2022-10-22T13:54:47.236Z,24.40
2022-10-22T13:58:50.096Z,24.20
2022-10-22T14:02:55.351Z,23.90
2022-10-22T14:07:01.354Z,23.70
2022-10-22T14:11:06.706Z,23.50
2022-10-22T14:15:11.303Z,23.30
2022-10-22T14:19:17.442Z,23.30
2022-10-22T14:23:22.109Z,23.20
2022-10-22T14:27:24.787Z,23.00
2022-10-22T14:31:28.338Z,22.70
2022-10-22T14:35:31.154Z,22.50
2022-10-22T14:39:35.200Z,22.40
2022-10-22T14:43:37.885Z,22.20
2022-10-22T14:47:40.637Z,22.00
2022-10-22T14:51:43.378Z,21.90
2022-10-22T14:55:49.128Z,21.60
2022-10-22T14:59:54.744Z,21.50
2022-10-22T15:03:57.496Z,21.30
2022-10-22T15:08:00.248Z,21.10
2022-10-22T15:12:04.748Z,20.90
2022-10-22T15:16:08.385Z,20.70
2022-10-22T15:20:11.165Z,20.50
2022-10-22T15:24:13.883Z,20.30
2022-10-22T15:28:17.995Z,20.10
2022-10-22T15:32:20.760Z,19.90
2022-10-22T15:36:23.463Z,19.70
2022-10-22T15:40:26.135Z,19.50
2022-10-22T15:44:31.815Z,19.40
2022-10-22T15:48:34.519Z,19.30
2022-10-22T15:52:37.252Z,19.20
2022-10-22T15:56:39.950Z,19.00
2022-10-22T16:00:44.033Z,18.90
2022-10-22T16:09:39.217Z,18.60
2022-10-22T16:13:41.919Z,18.50
2022-10-22T16:17:45.959Z,18.40
2022-10-22T16:21:51.141Z,18.30
2022-10-22T16:25:54.260Z,18.20
2022-10-22T16:29:56.977Z,17.90
2022-10-22T16:34:01.279Z,17.80
2022-10-22T16:38:04.005Z,17.70
2022-10-22T16:42:07.132Z,17.60
2022-10-22T16:46:09.980Z,17.50
2022-10-22T16:50:14.124Z,17.40
2022-10-22T16:54:16.926Z,17.20
2022-10-22T16:58:19.633Z,17.20
2022-10-22T17:02:22.402Z,17.10
2022-10-22T17:06:26.618Z,17.00
2022-10-22T17:10:29.334Z,17.00
2022-10-22T17:14:32.061Z,16.80
2022-10-22T17:18:40.165Z,16.60
2022-10-22T17:22:44.299Z,16.60
2022-10-22T17:26:47.715Z,16.60
2022-10-22T17:30:50.436Z,16.40
2022-10-22T17:34:53.295Z,16.30
2022-10-22T17:38:58.918Z,16.10
2022-10-22T17:43:01.692Z,16.10
2022-10-22T17:47:04.570Z,16.00
2022-10-22T17:51:07.877Z,15.90
2022-10-22T17:55:13.485Z,15.90
2022-10-22T17:59:17.799Z,15.80
2022-10-22T18:03:21.038Z,15.70
2022-10-22T18:07:23.735Z,15.50
2022-10-22T18:11:28.706Z,15.40
2022-10-22T18:15:33.405Z,15.20
2022-10-22T18:19:36.221Z,15.20
2022-10-22T18:23:38.898Z,15.20
2022-10-22T18:27:43.212Z,15.00
2022-10-22T18:31:46.492Z,14.90
2022-10-22T18:35:49.217Z,14.90
2022-10-22T18:39:51.957Z,15.00
2022-10-22T18:43:58.039Z,15.00
2022-10-22T18:48:00.774Z,15.00
2022-10-22T18:52:03.466Z,14.90
2022-10-22T18:56:07.559Z,14.80
2022-10-22T19:00:13.376Z,14.70
2022-10-22T19:04:16.317Z,14.60
2022-10-22T19:08:20.254Z,14.40
2022-10-22T19:12:22.942Z,14.30
2022-10-22T19:16:28.422Z,14.30
2022-10-22T19:20:31.208Z,14.20
2022-10-22T19:24:34.440Z,14.10
2022-10-22T19:28:38.003Z,14.00
2022-10-22T19:32:42.372Z,13.90
2022-10-22T19:36:45.256Z,13.90
2022-10-22T19:40:48.047Z,13.90
2022-10-22T19:44:50.754Z,13.90
2022-10-22T19:48:57.021Z,13.80
2022-10-22T19:53:01.418Z,13.80
2022-10-22T19:57:04.420Z,13.80
2022-10-22T20:01:08.415Z,13.90
2022-10-22T20:05:12.996Z,13.90
2022-10-22T20:09:15.788Z,13.90
2022-10-22T20:13:18.553Z,13.70
2022-10-22T20:17:21.235Z,13.70
2022-10-22T20:21:25.318Z,13.80
2022-10-22T20:25:28.027Z,13.70
2022-10-22T20:29:30.819Z,13.60
2022-10-22T20:33:33.522Z,13.60
2022-10-22T20:37:37.565Z,13.50
2022-10-22T20:41:40.662Z,13.60
2022-10-22T20:45:43.414Z,13.60
2022-10-22T20:49:46.395Z,13.50
2022-10-22T20:53:50.575Z,13.40
2022-10-22T20:57:53.410Z,13.30
2022-10-22T21:01:56.154Z,13.20
2022-10-22T21:05:58.839Z,13.20
2022-10-22T21:10:02.930Z,13.20
2022-10-22T21:14:06.511Z,13.20
2022-10-22T21:18:09.723Z,13.20
2022-10-22T21:22:12.431Z,13.20
2022-10-22T21:26:16.583Z,13.20
2022-10-22T21:30:19.344Z,13.20
2022-10-22T21:34:22.053Z,13.10
2022-10-22T21:38:26.166Z,13.10
2022-10-22T21:42:30.311Z,13.10
2022-10-22T21:46:33.083Z,13.10
2022-10-22T21:50:40.088Z,13.10
2022-10-22T21:54:42.847Z,13.20
2022-10-22T21:58:47.601Z,13.20
2022-10-22T22:02:50.283Z,13.30
2022-10-22T22:06:53.143Z,13.30
2022-10-22T22:11:02.372Z,13.30
2022-10-22T22:15:08.079Z,13.30
2022-10-22T22:19:11.248Z,13.30
2022-10-22T22:23:13.978Z,13.30
2022-10-22T22:27:17.352Z,13.20
2022-10-22T22:31:25.367Z,13.30
2022-10-22T22:35:28.790Z,13.20
2022-10-22T22:39:31.670Z,13.10
2022-10-22T22:43:34.467Z,13.10
2022-10-22T22:47:38.636Z,13.10
2022-10-22T22:51:41.531Z,13.10
2022-10-22T22:55:44.200Z,13.10
2022-10-22T22:59:50.198Z,13.10
2022-10-22T23:03:57.040Z,13.10
2022-10-22T23:08:00.313Z,13.10
2022-10-22T23:12:03.757Z,13.00
2022-10-22T23:16:07.590Z,13.00
2022-10-22T23:20:11.737Z,13.00
2022-10-22T23:24:16.931Z,13.00
2022-10-22T23:28:19.626Z,12.90
2022-10-22T23:32:22.351Z,12.90
2022-10-22T23:36:26.889Z,12.90
2022-10-22T23:40:29.582Z,12.80
2022-10-22T23:44:32.300Z,12.70
2022-10-22T23:48:35.305Z,12.60
2022-10-22T23:52:39.592Z,12.60
2022-10-22T23:56:42.831Z,12.60
